Time;durP1;ratioP1;P1;durP2;ratioP2;P2;SDS_P1;SDS_P2;PMS_P1;PMS_P2;Temp;Humidity;BMP_temperature;BMP_pressure;BME280_temperature;BME280_humidity;BME280_pressure;Samples;Min_cycle;Max_cycle;Signal;HPM_P1;HPM_P2
2022/04/11 00:02:14;;;;;;;6.32;3.63;;;4.50;99.90;;;;;;5032827;28;20065;-63
2022/04/11 00:04:40;;;;;;;6.03;2.95;;;4.50;99.90;;;;;;5033478;28;20485;-64
2022/04/11 00:07:06;;;;;;;8.30;3.08;;;4.50;99.90;;;;;;5033420;28;20051;-64
2022/04/11 00:09:31;;;;;;;8.52;3.22;;;4.50;99.90;;;;;;5023797;28;20121;-63
2022/04/11 00:11:57;;;;;;;7.40;3.03;;;4.50;99.90;;;;;;5013505;28;20481;-64
2022/04/11 00:14:24;;;;;;;5.10;2.88;;;4.50;99.90;;;;;;5013805;28;20042;-64
2022/04/11 00:16:49;;;;;;;7.53;2.92;;;4.50;99.90;;;;;;5013577;28;20478;-63
2022/04/11 00:19:15;;;;;;;4.55;2.80;;;4.40;99.90;;;;;;5004415;28;20044;-63
2022/04/11 00:21:41;;;;;;;6.97;3.10;;;4.40;99.90;;;;;;5033028;28;20037;-63
2022/04/11 00:24:07;;;;;;;6.88;2.80;;;4.40;99.90;;;;;;5033259;28;20038;-63
2022/04/11 00:26:33;;;;;;;6.18;3.25;;;4.40;99.90;;;;;;5033358;28;20372;-63
2022/04/11 00:28:58;;;;;;;8.43;2.90;;;4.40;99.90;;;;;;5032403;28;20045;-64
2022/04/11 00:31:24;;;;;;;8.43;2.70;;;4.40;99.90;;;;;;5015800;28;20057;-64
2022/04/11 00:33:51;;;;;;;7.38;2.80;;;4.40;99.90;;;;;;5033062;28;20037;-63
2022/04/11 00:36:17;;;;;;;6.68;2.92;;;4.40;99.90;;;;;;5033213;28;20164;-64
2022/04/11 00:38:43;;;;;;;7.88;3.03;;;4.40;99.90;;;;;;5030390;28;20468;-64
2022/04/11 00:41:08;;;;;;;8.38;3.08;;;4.30;99.90;;;;;;5013718;28;20522;-64
2022/04/11 00:43:39;;;;;;;6.90;3.03;;;4.30;99.90;;;;;;5012681;28;20045;-64
2022/04/11 00:46:06;;;;;;;10.20;3.42;;;4.30;99.90;;;;;;5013283;28;20045;-63
2022/04/11 00:48:32;;;;;;;7.03;3.47;;;4.30;99.90;;;;;;5014150;28;20172;-64
2022/04/11 00:51:21;;;;;;;6.95;3.50;;;4.20;99.90;;;;;;5033289;28;20037;-63
2022/04/11 00:53:47;;;;;;;7.75;3.15;;;4.20;99.90;;;;;;5022832;28;20046;-64
2022/04/11 00:56:16;;;;;;;7.50;3.55;;;4.10;99.90;;;;;;5032974;28;20038;-64
2022/04/11 00:58:42;;;;;;;7.40;3.17;;;4.10;99.90;;;;;;5030652;28;20176;-64
2022/04/11 01:01:09;;;;;;;5.30;3.05;;;4.10;99.90;;;;;;5013379;28;20593;-63
2022/04/11 01:03:35;;;;;;;5.55;2.78;;;4.00;99.90;;;;;;5013111;28;20042;-63
2022/04/11 01:06:01;;;;;;;5.43;2.47;;;3.90;99.90;;;;;;4996068;28;20371;-63
2022/04/11 01:08:27;;;;;;;7.30;2.80;;;3.90;99.90;;;;;;4995905;28;20382;-64
2022/04/11 01:10:52;;;;;;;5.53;2.65;;;3.90;99.90;;;;;;5013144;28;20049;-63
2022/04/11 01:13:19;;;;;;;4.97;2.65;;;3.90;99.90;;;;;;5014301;28;20402;-63
2022/04/11 01:16:04;;;;;;;6.63;2.78;;;3.80;99.90;;;;;;5000129;28;20041;-64
2022/04/11 01:18:34;;;;;;;8.20;2.58;;;3.80;99.90;;;;;;5017291;28;20061;-64
2022/04/11 01:21:00;;;;;;;12.38;2.95;;;3.80;99.90;;;;;;5036726;28;20132;-64
2022/04/11 01:23:26;;;;;;;7.90;2.95;;;3.80;99.90;;;;;;5018652;28;20055;-63
2022/04/11 01:25:53;;;;;;;4.85;2.92;;;3.80;99.90;;;;;;5036519;28;20116;-63
2022/04/11 01:28:20;;;;;;;5.85;2.50;;;3.80;99.90;;;;;;5036631;28;20124;-63
2022/04/11 01:30:47;;;;;;;5.72;2.30;;;3.80;99.90;;;;;;5017121;28;20081;-64
2022/04/11 01:33:18;;;;;;;6.65;2.90;;;3.80;99.90;;;;;;4998675;28;20057;-64
2022/04/11 01:35:44;;;;;;;5.95;2.35;;;3.80;99.90;;;;;;5016783;28;20127;-63
2022/04/11 01:38:09;;;;;;;5.45;2.40;;;3.90;99.90;;;;;;4999469;28;20084;-64
2022/04/11 01:40:35;;;;;;;6.75;2.47;;;4.00;99.90;;;;;;5016172;28;20049;-64
2022/04/11 01:43:01;;;;;;;6.95;2.35;;;4.00;99.90;;;;;;5035693;28;20064;-64
2022/04/11 01:45:26;;;;;;;6.07;2.47;;;4.10;99.90;;;;;;5036150;28;20045;-64
2022/04/11 01:47:52;;;;;;;6.65;2.20;;;4.10;99.90;;;;;;5018538;28;20469;-64
2022/04/11 01:50:18;;;;;;;6.85;2.42;;;4.10;99.90;;;;;;5003727;28;20077;-64
2022/04/11 01:52:43;;;;;;;4.47;2.20;;;4.10;99.90;;;;;;5016205;28;20184;-64
2022/04/11 01:55:09;;;;;;;3.80;1.95;;;4.10;99.90;;;;;;4999005;28;20044;-63
2022/04/11 01:57:35;;;;;;;4.25;2.08;;;4.10;99.90;;;;;;5016349;28;20033;-64
2022/04/11 02:00:00;;;;;;;5.72;2.60;;;4.10;99.90;;;;;;5028726;28;20049;-64
2022/04/11 02:02:26;;;;;;;7.25;2.35;;;4.00;99.90;;;;;;5035514;28;20434;-64
2022/04/11 02:04:52;;;;;;;4.72;2.40;;;4.00;99.90;;;;;;5036016;28;20059;-63
2022/04/11 02:07:18;;;;;;;5.65;2.20;;;4.00;99.90;;;;;;5036293;28;20124;-64
2022/04/11 02:09:43;;;;;;;4.32;2.10;;;4.10;99.90;;;;;;5017605;28;20133;-63
2022/04/11 02:12:09;;;;;;;6.63;2.70;;;4.00;99.90;;;;;;5035656;28;20409;-64
2022/04/11 02:14:35;;;;;;;5.75;2.50;;;4.00;99.90;;;;;;5035575;28;20037;-64
2022/04/11 02:17:00;;;;;;;6.20;2.45;;;4.00;99.90;;;;;;5035362;28;20038;-64
2022/04/11 02:19:26;;;;;;;6.22;2.35;;;4.00;99.90;;;;;;5027797;28;20034;-65
2022/04/11 02:21:51;;;;;;;5.25;2.35;;;4.00;99.90;;;;;;5015805;28;20463;-63
2022/04/11 02:24:17;;;;;;;5.55;2.08;;;4.00;99.90;;;;;;4997766;28;20050;-65
2022/04/11 02:26:42;;;;;;;5.75;2.50;;;4.00;99.90;;;;;;5015812;28;20080;-64
2022/04/11 02:29:08;;;;;;;5.53;2.55;;;4.00;99.90;;;;;;5003199;28;20470;-63
2022/04/11 02:31:34;;;;;;;4.57;2.40;;;3.90;99.90;;;;;;5035178;28;20041;-63
2022/04/11 02:33:59;;;;;;;5.07;2.30;;;3.90;99.90;;;;;;5035362;28;20033;-63
2022/04/11 02:36:25;;;;;;;5.47;2.90;;;3.90;99.90;;;;;;5035586;28;20426;-63
2022/04/11 02:38:52;;;;;;;5.75;2.22;;;3.90;99.90;;;;;;5032094;28;20172;-65
2022/04/11 02:41:18;;;;;;;6.85;2.45;;;4.00;99.90;;;;;;5015604;28;20084;-65
2022/04/11 02:43:44;;;;;;;5.15;2.50;;;3.90;99.90;;;;;;5014705;28;20431;-64
2022/04/11 02:46:10;;;;;;;6.22;2.60;;;3.90;99.90;;;;;;5014775;28;20184;-64
2022/04/11 02:48:37;;;;;;;5.82;2.40;;;3.90;99.90;;;;;;5015505;28;20125;-64
2022/04/11 02:51:03;;;;;;;6.57;2.30;;;3.90;99.90;;;;;;4997806;28;20085;-64
2022/04/11 02:53:28;;;;;;;6.53;2.53;;;3.90;99.90;;;;;;5014782;28;20041;-63
2022/04/11 02:55:54;;;;;;;4.35;2.42;;;3.90;99.90;;;;;;5014819;28;20041;-63
2022/04/11 02:58:19;;;;;;;5.90;2.50;;;3.90;99.90;;;;;;5014964;28;20149;-64
2022/04/11 03:00:45;;;;;;;5.85;2.67;;;3.90;99.90;;;;;;5033209;28;20049;-64
2022/04/11 03:03:10;;;;;;;6.90;2.92;;;3.80;99.90;;;;;;5016746;28;20037;-64
2022/04/11 03:05:37;;;;;;;8.43;2.45;;;3.80;99.90;;;;;;5034514;28;20373;-64
2022/04/11 03:08:02;;;;;;;6.93;2.78;;;3.70;99.90;;;;;;5034406;28;20053;-64
2022/04/11 03:10:28;;;;;;;7.28;3.15;;;3.70;99.90;;;;;;5018464;28;20038;-63
2022/04/11 03:12:54;;;;;;;5.25;2.80;;;3.70;99.90;;;;;;4996893;28;20061;-63
2022/04/11 03:15:19;;;;;;;6.20;2.88;;;3.70;99.90;;;;;;5014731;28;20108;-64
2022/04/11 03:17:45;;;;;;;7.00;3.38;;;3.70;99.90;;;;;;5014689;28;20327;-64
2022/04/11 03:20:11;;;;;;;6.53;3.30;;;3.70;99.90;;;;;;5027645;28;20069;-64
2022/04/11 03:22:36;;;;;;;6.20;2.67;;;3.60;99.90;;;;;;5033977;28;20347;-63
2022/04/11 03:25:02;;;;;;;6.20;3.10;;;3.70;99.90;;;;;;5034075;28;20064;-63
2022/04/11 03:27:28;;;;;;;6.75;2.90;;;3.70;99.90;;;;;;5034273;28;20045;-64
2022/04/11 03:29:54;;;;;;;7.57;3.50;;;3.60;99.90;;;;;;5023011;28;20084;-64
2022/04/11 03:32:20;;;;;;;9.35;3.33;;;3.70;99.90;;;;;;5013909;28;20037;-64
2022/04/11 03:34:47;;;;;;;5.85;3.10;;;3.70;99.90;;;;;;5014123;28;20073;-64
2022/04/11 03:37:12;;;;;;;6.30;3.20;;;3.60;99.90;;;;;;5013996;28;20088;-63
2022/04/11 03:39:38;;;;;;;7.13;3.15;;;3.70;99.90;;;;;;5022982;28;20099;-65
2022/04/11 03:42:04;;;;;;;7.97;3.30;;;3.70;99.90;;;;;;5033752;28;20045;-65
2022/04/11 03:44:30;;;;;;;5.93;3.08;;;3.70;99.90;;;;;;5016347;28;20053;-64
2022/04/11 03:46:55;;;;;;;6.43;3.33;;;3.70;99.90;;;;;;5033995;28;20048;-64
2022/04/11 03:49:21;;;;;;;9.60;3.15;;;3.60;99.90;;;;;;5027296;28;20085;-64
2022/04/11 03:51:47;;;;;;;7.32;3.42;;;3.70;99.90;;;;;;5014095;28;20056;-64
2022/04/11 03:54:12;;;;;;;5.47;3.10;;;3.60;99.90;;;;;;5014382;28;20048;-64
2022/04/11 03:56:38;;;;;;;8.65;3.25;;;3.60;99.90;;;;;;4996794;28;20053;-65
2022/04/11 03:59:04;;;;;;;6.30;3.10;;;3.60;99.90;;;;;;5017840;28;20128;-64
2022/04/11 04:01:30;;;;;;;8.80;3.15;;;3.60;99.90;;;;;;5033244;28;20045;-64
2022/04/11 04:03:56;;;;;;;7.18;3.38;;;3.60;99.90;;;;;;5033650;28;20103;-63
2022/04/11 04:06:21;;;;;;;5.78;3.40;;;3.70;99.90;;;;;;5033907;28;20034;-64
2022/04/11 04:08:47;;;;;;;8.35;3.22;;;3.70;99.90;;;;;;5031917;28;20049;-63
2022/04/11 04:11:13;;;;;;;7.63;3.45;;;3.70;99.90;;;;;;5014016;28;20033;-64
2022/04/11 04:13:38;;;;;;;5.40;3.03;;;3.80;99.90;;;;;;5013303;28;20478;-64
2022/04/11 04:16:05;;;;;;;8.90;3.50;;;3.80;99.90;;;;;;5013667;28;20053;-63
2022/04/11 04:18:30;;;;;;;8.75;3.47;;;3.80;99.90;;;;;;5013846;28;20042;-64
2022/04/11 04:20:56;;;;;;;8.35;3.50;;;3.80;99.90;;;;;;5032733;28;20038;-63
2022/04/11 04:23:21;;;;;;;7.03;3.58;;;3.90;99.90;;;;;;5032843;28;20557;-64
2022/04/11 04:25:47;;;;;;;6.88;3.45;;;3.90;99.90;;;;;;5033524;28;20102;-64
2022/04/11 04:28:15;;;;;;;8.18;3.70;;;4.00;99.90;;;;;;5033412;28;20191;-64
2022/04/11 04:30:40;;;;;;;7.68;3.47;;;3.90;99.90;;;;;;5015955;28;20489;-63
2022/04/11 04:33:06;;;;;;;5.78;3.60;;;4.00;99.90;;;;;;5013105;28;20033;-64
2022/04/11 04:35:32;;;;;;;6.63;3.63;;;4.00;99.90;;;;;;5013496;28;20612;-64
2022/04/11 04:37:57;;;;;;;5.88;3.72;;;4.00;99.90;;;;;;5013610;28;20034;-63
2022/04/11 04:40:23;;;;;;;8.05;3.85;;;4.00;99.90;;;;;;5027468;28;20041;-64
2022/04/11 04:42:48;;;;;;;8.25;3.70;;;4.10;99.90;;;;;;5032701;28;20061;-64
2022/04/11 04:45:14;;;;;;;8.00;3.85;;;4.10;99.90;;;;;;5033407;28;20128;-64
2022/04/11 04:47:40;;;;;;;6.22;3.70;;;4.10;99.90;;;;;;5034259;28;20434;-63
2022/04/11 04:50:07;;;;;;;7.80;3.83;;;4.10;99.90;;;;;;5036200;28;20041;-64
2022/04/11 04:52:32;;;;;;;8.45;4.32;;;4.10;99.90;;;;;;5035688;28;20041;-64
2022/04/11 04:54:58;;;;;;;7.00;3.70;;;4.10;99.90;;;;;;5019214;28;20033;-65
2022/04/11 04:57:23;;;;;;;7.25;4.18;;;4.10;99.90;;;;;;5018953;28;20326;-65
2022/04/11 04:59:49;;;;;;;7.93;3.65;;;4.10;99.90;;;;;;5024855;28;20048;-63
2022/04/11 05:02:20;;;;;;;7.63;4.47;;;4.10;99.90;;;;;;5036196;28;20523;-64
2022/04/11 05:04:45;;;;;;;11.65;4.45;;;4.10;99.90;;;;;;5037059;28;20264;-64
2022/04/11 05:07:11;;;;;;;8.18;4.35;;;4.10;99.90;;;;;;5036695;28;20453;-64
2022/04/11 05:09:36;;;;;;;7.90;4.53;;;4.10;99.90;;;;;;5035824;28;20161;-63
2022/04/11 05:12:02;;;;;;;7.28;3.78;;;4.10;99.90;;;;;;5031775;28;20088;-64
2022/04/11 05:14:28;;;;;;;10.88;4.68;;;4.20;99.90;;;;;;5035641;28;20033;-64
2022/04/11 05:16:54;;;;;;;7.25;4.22;;;4.10;99.90;;;;;;5036323;28;20552;-64
2022/04/11 05:19:19;;;;;;;8.05;4.20;;;4.10;99.90;;;;;;5033327;28;20049;-65
2022/04/11 05:21:45;;;;;;;8.07;4.00;;;4.20;99.90;;;;;;5034955;28;20045;-64
2022/04/11 05:24:11;;;;;;;8.00;4.15;;;4.20;99.90;;;;;;5037338;28;20072;-62
2022/04/11 05:26:38;;;;;;;10.65;4.18;;;4.20;99.90;;;;;;5035947;28;20104;-65
2022/04/11 05:29:06;;;;;;;8.63;4.72;;;4.30;99.90;;;;;;4987714;28;20066;-62
2022/04/11 05:31:32;;;;;;;8.52;4.75;;;4.20;99.90;;;;;;5003039;28;20038;-63
2022/04/11 05:33:57;;;;;;;8.70;4.50;;;4.30;99.90;;;;;;5037262;28;20091;-63
2022/04/11 05:36:23;;;;;;;8.00;4.55;;;4.30;99.90;;;;;;5037144;28;20052;-64
2022/04/11 05:38:49;;;;;;;8.48;4.82;;;4.30;99.90;;;;;;5035743;28;20374;-63
2022/04/11 05:41:15;;;;;;;9.60;4.80;;;4.40;99.90;;;;;;5026004;28;20048;-63
2022/04/11 05:43:41;;;;;;;9.25;4.30;;;4.40;99.90;;;;;;5048466;28;20484;-63
2022/04/11 05:46:06;;;;;;;10.30;5.00;;;4.40;99.90;;;;;;5056978;28;20040;-63
2022/04/11 05:48:35;;;;;;;8.40;4.50;;;4.50;99.90;;;;;;5021428;28;20056;-63
2022/04/11 05:51:01;;;;;;;8.55;4.60;;;4.50;99.90;;;;;;5054758;28;20461;-64
2022/04/11 05:53:27;;;;;;;8.65;4.82;;;4.50;99.90;;;;;;5056543;28;20068;-64
2022/04/11 05:55:53;;;;;;;7.90;4.20;;;4.50;99.90;;;;;;5039384;28;20354;-64
2022/04/11 05:58:19;;;;;;;10.15;4.70;;;4.50;99.90;;;;;;5055216;28;20037;-64
2022/04/11 06:00:44;;;;;;;9.52;4.93;;;4.60;99.90;;;;;;5043038;28;20090;-66
2022/04/11 06:03:10;;;;;;;9.05;4.65;;;4.60;99.90;;;;;;5037039;28;20442;-65
2022/04/11 06:05:39;;;;;;;7.93;4.05;;;4.70;99.90;;;;;;5055439;28;20040;-63
2022/04/11 06:08:05;;;;;;;7.50;4.30;;;4.80;99.90;;;;;;5055209;28;20120;-63
2022/04/11 06:10:31;;;;;;;6.47;4.05;;;4.80;99.90;;;;;;5033994;28;20119;-63
2022/04/11 06:12:57;;;;;;;9.48;3.85;;;4.90;99.90;;;;;;5037907;28;20084;-66
2022/04/11 06:15:23;;;;;;;10.15;4.05;;;4.90;99.90;;;;;;5037396;28;20048;-63
2022/04/11 06:17:48;;;;;;;7.47;4.03;;;4.90;99.90;;;;;;5054949;28;20048;-63
2022/04/11 06:20:14;;;;;;;8.27;4.22;;;4.90;99.90;;;;;;5053180;28;20040;-63
2022/04/11 06:22:40;;;;;;;9.75;4.32;;;5.00;99.90;;;;;;5037280;28;20052;-63
2022/04/11 06:25:08;;;;;;;8.70;4.40;;;5.00;99.90;;;;;;5055017;28;20041;-63
2022/04/11 06:27:36;;;;;;;9.50;3.90;;;5.10;99.90;;;;;;5053882;28;20045;-63
2022/04/11 06:30:04;;;;;;;8.13;4.00;;;5.20;99.90;;;;;;5033812;28;20175;-64
2022/04/11 06:32:31;;;;;;;10.57;4.68;;;5.30;99.90;;;;;;5051029;28;20061;-63
2022/04/11 06:34:59;;;;;;;8.65;3.83;;;5.40;99.90;;;;;;5054159;28;20071;-64
2022/04/11 06:37:25;;;;;;;8.27;4.13;;;5.50;99.90;;;;;;5049067;28;20041;-64
2022/04/11 06:39:52;;;;;;;8.45;4.18;;;5.60;99.90;;;;;;5031619;28;20080;-63
2022/04/11 06:42:17;;;;;;;8.63;4.80;;;5.70;99.90;;;;;;5033126;28;20043;-63
2022/04/11 06:44:43;;;;;;;8.25;4.00;;;5.90;99.90;;;;;;4998906;28;20120;-65
2022/04/11 06:47:09;;;;;;;7.82;4.20;;;6.00;99.90;;;;;;5022263;28;20049;-63
2022/04/11 06:49:35;;;;;;;10.65;4.30;;;6.20;99.90;;;;;;5011073;28;20111;-63
2022/04/11 06:52:02;;;;;;;10.95;4.47;;;6.60;99.90;;;;;;4998887;28;20395;-63
2022/04/11 06:54:27;;;;;;;8.10;4.50;;;6.90;99.90;;;;;;5015985;28;20462;-64
2022/04/11 06:56:53;;;;;;;7.05;3.85;;;7.20;99.90;;;;;;5033477;28;20041;-64
2022/04/11 06:59:19;;;;;;;9.38;4.40;;;7.30;99.90;;;;;;5013366;28;20045;-65
2022/04/11 07:01:45;;;;;;;7.38;4.25;;;7.60;99.90;;;;;;5015584;28;20041;-65
2022/04/11 07:04:10;;;;;;;6.90;4.30;;;7.70;99.90;;;;;;4998343;28;20053;-64
2022/04/11 07:06:36;;;;;;;8.55;4.05;;;7.90;99.90;;;;;;5015494;28;20438;-64
2022/04/11 07:09:02;;;;;;;8.13;3.88;;;8.00;99.90;;;;;;5017562;28;20088;-65
2022/04/11 07:11:30;;;;;;;7.13;4.28;;;8.20;99.90;;;;;;5017866;28;20179;-65
2022/04/11 07:13:56;;;;;;;8.07;4.28;;;8.30;99.90;;;;;;5001248;28;20081;-65
2022/04/11 07:16:23;;;;;;;6.80;4.38;;;8.20;99.90;;;;;;5015747;28;20069;-65
2022/04/11 07:18:48;;;;;;;9.23;4.38;;;8.10;99.90;;;;;;5015173;28;20046;-65
2022/04/11 07:21:14;;;;;;;7.63;3.88;;;7.90;99.90;;;;;;5033509;28;20048;-64
2022/04/11 07:23:41;;;;;;;9.05;4.32;;;7.90;99.90;;;;;;5033123;28;20060;-68
2022/04/11 07:26:09;;;;;;;10.02;4.47;;;8.10;99.90;;;;;;5015821;28;20128;-65
2022/04/11 07:28:35;;;;;;;11.07;4.70;;;8.20;99.90;;;;;;4982717;28;20132;-66
2022/04/11 07:31:01;;;;;;;8.65;4.40;;;8.40;99.90;;;;;;5014827;28;20176;-65
2022/04/11 07:33:26;;;;;;;8.82;4.50;;;8.70;99.90;;;;;;5034388;28;20038;-64
2022/04/11 07:35:52;;;;;;;7.43;4.75;;;8.90;99.90;;;;;;5033211;28;20116;-64
2022/04/11 07:38:19;;;;;;;8.18;4.75;;;9.30;99.90;;;;;;5034488;28;20049;-65
2022/04/11 07:40:45;;;;;;;7.65;4.95;;;9.50;99.90;;;;;;5033968;28;20362;-65
2022/04/11 07:43:11;;;;;;;9.82;4.90;;;9.70;99.90;;;;;;5017083;28;20061;-64
2022/04/11 07:45:37;;;;;;;7.47;4.63;;;9.80;99.90;;;;;;5034586;28;20249;-64
2022/04/11 07:48:02;;;;;;;9.15;5.05;;;9.80;99.90;;;;;;5032412;28;20041;-65
2022/04/11 07:50:28;;;;;;;8.80;4.75;;;9.80;99.90;;;;;;5021515;28;20536;-64
2022/04/11 07:52:54;;;;;;;10.93;5.28;;;9.80;99.90;;;;;;5017048;28;20060;-65
2022/04/11 07:55:19;;;;;;;13.45;6.00;;;10.00;99.90;;;;;;5034591;28;20073;-65
2022/04/11 07:57:45;;;;;;;9.45;5.25;;;10.00;99.90;;;;;;5034307;28;20045;-65
2022/04/11 08:00:12;;;;;;;9.15;5.25;;;10.20;99.90;;;;;;5023414;28;20050;-65
2022/04/11 08:02:39;;;;;;;11.80;5.20;;;10.30;99.90;;;;;;5014603;28;20425;-64
2022/04/11 08:05:05;;;;;;;9.48;5.43;;;10.30;99.90;;;;;;4997474;28;20092;-65
2022/04/11 08:07:35;;;;;;;8.82;5.47;;;10.30;99.90;;;;;;4997282;28;20096;-65
2022/04/11 08:10:05;;;;;;;8.02;5.47;;;10.40;99.90;;;;;;4987484;28;20092;-65
2022/04/11 08:12:32;;;;;;;10.00;4.80;;;10.50;99.90;;;;;;5015926;28;20049;-65
2022/04/11 08:14:57;;;;;;;7.82;5.35;;;10.60;99.90;;;;;;5033966;28;20030;-64
2022/04/11 08:17:23;;;;;;;9.93;5.40;;;10.80;99.90;;;;;;5033754;28;20327;-65
2022/04/11 08:19:49;;;;;;;9.98;5.25;;;10.80;99.90;;;;;;5033495;28;20037;-65
2022/04/11 08:22:15;;;;;;;10.07;5.10;;;11.00;99.90;;;;;;5021686;28;20042;-65
2022/04/11 08:24:40;;;;;;;9.52;5.32;;;11.10;99.90;;;;;;5014525;28;20052;-65
2022/04/11 08:27:06;;;;;;;7.72;5.45;;;11.30;99.90;;;;;;5014317;28;20041;-65
2022/04/11 08:29:32;;;;;;;8.75;5.35;;;11.40;99.90;;;;;;5018177;28;20091;-64
2022/04/11 08:31:57;;;;;;;7.20;4.80;;;11.50;99.90;;;;;;5014447;28;20052;-65
2022/04/11 08:34:23;;;;;;;11.48;5.57;;;11.50;99.90;;;;;;5014424;28;20462;-67
2022/04/11 08:36:48;;;;;;;7.57;5.35;;;11.60;99.90;;;;;;5013682;28;20053;-65
2022/04/11 08:39:15;;;;;;;8.57;5.43;;;11.60;99.90;;;;;;5017344;28;20084;-65
2022/04/11 08:41:41;;;;;;;10.13;6.05;;;11.60;99.90;;;;;;5033789;28;20102;-65
2022/04/11 08:44:07;;;;;;;8.30;5.35;;;11.70;99.90;;;;;;5032245;28;20764;-65
2022/04/11 08:46:35;;;;;;;8.68;5.18;;;11.80;99.80;;;;;;5033231;28;20148;-65
2022/04/11 08:49:02;;;;;;;8.95;4.88;;;11.80;99.00;;;;;;5032275;28;20045;-66
2022/04/11 08:51:32;;;;;;;8.50;5.35;;;12.00;99.60;;;;;;5014162;28;20451;-65
2022/04/11 08:54:05;;;;;;;7.05;4.90;;;11.80;99.10;;;;;;5014083;28;20030;-65
2022/04/11 08:56:31;;;;;;;7.65;5.22;;;12.00;98.00;;;;;;5013595;28;20041;-65
2022/04/11 08:58:57;;;;;;;8.18;5.15;;;12.10;98.60;;;;;;5014552;28;20049;-65
2022/04/11 09:01:24;;;;;;;8.02;5.00;;;12.20;98.90;;;;;;5013642;28;20462;-65
2022/04/11 09:03:50;;;;;;;8.95;5.28;;;12.30;98.40;;;;;;5014044;28;20052;-65
2022/04/11 09:06:18;;;;;;;7.03;5.20;;;12.40;98.70;;;;;;5014236;28;20114;-66
2022/04/11 09:08:52;;;;;;;7.28;5.22;;;12.30;98.30;;;;;;4980243;28;20045;-65
2022/04/11 09:11:37;;;;;;;8.32;5.43;;;12.30;97.30;;;;;;5013825;28;20073;-65
2022/04/11 09:14:07;;;;;;;8.43;5.50;;;12.50;98.70;;;;;;5022796;28;20034;-66
2022/04/11 09:17:02;;;;;;;10.02;5.80;;;12.30;98.10;;;;;;5031423;28;20592;-65
2022/04/11 09:19:29;;;;;;;7.28;5.18;;;12.50;97.60;;;;;;5019631;28;20045;-65
2022/04/11 09:21:54;;;;;;;10.05;5.90;;;12.60;98.30;;;;;;5033451;28;20037;-64
2022/04/11 09:24:24;;;;;;;7.72;5.22;;;12.70;98.80;;;;;;5033376;28;20048;-65
2022/04/11 09:26:54;;;;;;;11.20;5.80;;;12.80;98.80;;;;;;5015906;28;20347;-65
2022/04/11 09:29:20;;;;;;;9.98;6.03;;;12.80;98.40;;;;;;5012366;28;20042;-65
2022/04/11 09:31:46;;;;;;;11.38;5.80;;;12.80;98.20;;;;;;5014094;28;20129;-65
2022/04/11 09:34:14;;;;;;;8.70;5.18;;;12.90;98.30;;;;;;5015117;28;20045;-65
2022/04/11 09:36:54;;;;;;;10.20;5.25;;;13.00;97.80;;;;;;4999503;28;20076;-65
2022/04/11 09:39:26;;;;;;;8.40;5.38;;;13.00;97.40;;;;;;5020609;28;20124;-65
2022/04/11 09:41:53;;;;;;;8.95;5.10;;;13.10;97.10;;;;;;5037308;28;20041;-65
2022/04/11 09:44:35;;;;;;;8.88;6.07;;;13.20;97.00;;;;;;5019047;28;20060;-65
2022/04/11 09:47:05;;;;;;;9.43;6.00;;;13.10;96.00;;;;;;5028596;28;20104;-64
2022/04/11 09:49:32;;;;;;;9.45;5.25;;;13.30;96.30;;;;;;5021720;28;20041;-65
2022/04/11 09:52:08;;;;;;;9.40;5.50;;;13.40;95.00;;;;;;5036863;28;20038;-65
2022/04/11 09:54:36;;;;;;;9.05;4.88;;;13.40;95.70;;;;;;5036627;28;20491;-66
2022/04/11 09:57:04;;;;;;;9.07;5.80;;;13.40;94.80;;;;;;5019290;28;20392;-65
2022/04/11 09:59:30;;;;;;;10.85;6.13;;;13.20;94.70;;;;;;5032110;28;20033;-65
2022/04/11 10:01:59;;;;;;;9.05;5.80;;;13.30;95.60;;;;;;4999349;28;20128;-65
2022/04/11 10:04:26;;;;;;;10.73;6.22;;;13.20;96.00;;;;;;5016732;28;20451;-65
2022/04/11 10:06:52;;;;;;;7.95;6.20;;;13.40;94.80;;;;;;5016482;28;20042;-65
2022/04/11 10:09:23;;;;;;;9.80;6.13;;;13.40;94.50;;;;;;5019465;28;20053;-65
2022/04/11 10:11:52;;;;;;;10.48;5.82;;;13.50;94.90;;;;;;5036659;28;20042;-65
2022/04/11 10:14:23;;;;;;;9.50;6.05;;;13.50;94.20;;;;;;5036106;28;20374;-65
2022/04/11 10:16:54;;;;;;;10.98;6.20;;;13.60;95.40;;;;;;5018594;28;20450;-65
2022/04/11 10:19:25;;;;;;;9.70;6.35;;;13.80;94.80;;;;;;5033137;28;20136;-65
2022/04/11 10:21:54;;;;;;;9.60;5.90;;;13.70;94.80;;;;;;5009667;28;20057;-65
2022/04/11 10:24:34;;;;;;;9.40;6.25;;;13.80;94.10;;;;;;5036243;28;20049;-65
2022/04/11 10:27:20;;;;;;;10.30;5.95;;;13.80;94.30;;;;;;5036145;28;20091;-65
2022/04/11 10:29:48;;;;;;;9.30;5.80;;;13.80;93.60;;;;;;5035436;28;20037;-65
2022/04/11 10:32:18;;;;;;;8.07;5.75;;;13.80;94.20;;;;;;5036117;28;20116;-64
2022/04/11 10:35:09;;;;;;;9.43;5.53;;;14.00;94.30;;;;;;5036287;28;20037;-63
2022/04/11 10:37:41;;;;;;;10.30;6.25;;;14.30;92.70;;;;;;5018095;28;20385;-65
2022/04/11 10:40:28;;;;;;;9.88;6.18;;;14.10;93.20;;;;;;5009096;28;20053;-65
2022/04/11 10:43:00;;;;;;;11.00;6.13;;;14.00;92.70;;;;;;4985959;28;20050;-65
2022/04/11 10:45:40;;;;;;;8.88;6.03;;;14.00;93.80;;;;;;4998109;28;20049;-65
2022/04/11 10:48:11;;;;;;;9.50;5.82;;;14.00;94.30;;;;;;5015036;28;20124;-66
2022/04/11 10:50:41;;;;;;;10.25;6.43;;;14.20;92.90;;;;;;5029868;28;20046;-64
2022/04/11 10:53:10;;;;;;;8.27;6.13;;;14.20;92.50;;;;;;5034764;28;20374;-64
2022/04/11 10:55:52;;;;;;;10.40;6.07;;;14.30;91.90;;;;;;5033813;28;20104;-64
2022/04/11 10:58:22;;;;;;;9.68;5.97;;;14.30;91.30;;;;;;5034304;28;20067;-64
2022/04/11 11:00:51;;;;;;;9.48;6.18;;;14.30;91.40;;;;;;5033717;28;20033;-64
2022/04/11 11:03:16;;;;;;;11.57;6.95;;;14.40;92.40;;;;;;5034599;28;20037;-64
2022/04/11 11:05:45;;;;;;;10.40;6.05;;;14.50;91.90;;;;;;5033536;28;20041;-65
2022/04/11 11:08:11;;;;;;;10.90;6.53;;;14.60;91.80;;;;;;5034168;28;20045;-65
2022/04/11 11:10:52;;;;;;;10.25;6.75;;;14.60;92.10;;;;;;5033415;28;20242;-64
2022/04/11 11:13:38;;;;;;;8.77;6.55;;;14.70;92.00;;;;;;5034256;28;20041;-65
2022/04/11 11:16:07;;;;;;;10.95;6.80;;;14.80;91.90;;;;;;5034340;28;20041;-65
2022/04/11 11:18:51;;;;;;;13.85;7.05;;;14.70;91.60;;;;;;5033205;28;20124;-65
2022/04/11 11:21:19;;;;;;;11.73;7.13;;;14.80;91.40;;;;;;5033900;28;20052;-65
2022/04/11 11:24:11;;;;;;;11.32;7.32;;;14.90;91.70;;;;;;5035268;28;20073;-65
2022/04/11 11:26:48;;;;;;;10.15;6.97;;;15.10;91.30;;;;;;5033949;28;20069;-65
2022/04/11 11:29:14;;;;;;;12.60;7.78;;;15.10;90.80;;;;;;5032403;28;20697;-65
2022/04/11 11:31:40;;;;;;;11.02;7.53;;;15.10;91.10;;;;;;5033754;28;20045;-63
2022/04/11 11:34:11;;;;;;;12.55;8.00;;;14.90;91.40;;;;;;5035049;28;20034;-64
2022/04/11 11:36:37;;;;;;;13.00;7.75;;;15.10;90.70;;;;;;5034762;28;20041;-64
2022/04/11 11:39:16;;;;;;;10.80;8.00;;;15.00;90.50;;;;;;5033774;28;20037;-64
2022/04/11 11:41:50;;;;;;;11.18;7.80;;;14.90;91.00;;;;;;4997835;28;20046;-66
2022/04/11 11:44:16;;;;;;;11.60;8.00;;;14.90;91.50;;;;;;4997252;28;20386;-64
2022/04/11 11:46:53;;;;;;;10.93;7.55;;;14.90;91.30;;;;;;5019533;28;20053;-64
2022/04/11 11:49:20;;;;;;;11.20;7.53;;;15.00;91.10;;;;;;5031993;28;20041;-65
2022/04/11 11:51:47;;;;;;;10.57;7.65;;;15.10;91.50;;;;;;5015325;28;20099;-64
2022/04/11 11:54:13;;;;;;;9.68;7.20;;;15.10;90.50;;;;;;5015127;28;20034;-64
2022/04/11 11:56:44;;;;;;;10.10;7.78;;;15.10;90.90;;;;;;4996440;28;20052;-64
2022/04/11 11:59:11;;;;;;;10.98;7.95;;;15.10;90.70;;;;;;5015447;28;20068;-64
2022/04/11 12:01:38;;;;;;;10.07;7.47;;;15.20;90.70;;;;;;5034407;28;20410;-64
2022/04/11 12:04:20;;;;;;;12.98;8.38;;;15.20;91.30;;;;;;5034413;28;20488;-64
2022/04/11 12:06:55;;;;;;;10.82;7.53;;;15.20;91.20;;;;;;5034343;28;20120;-64
2022/04/11 12:09:21;;;;;;;10.93;7.78;;;15.20;90.80;;;;;;5031777;28;20133;-64
2022/04/11 12:11:47;;;;;;;11.73;8.40;;;15.20;91.00;;;;;;5014658;28;20034;-64
2022/04/11 12:14:12;;;;;;;11.88;8.68;;;15.00;91.60;;;;;;5014892;28;20034;-64
2022/04/11 12:17:00;;;;;;;13.05;8.43;;;14.90;91.30;;;;;;4996783;28;20038;-64
2022/04/11 12:19:35;;;;;;;11.02;8.05;;;14.90;91.30;;;;;;5017058;28;20057;-64
2022/04/11 12:22:15;;;;;;;9.63;7.60;;;15.00;92.20;;;;;;5034260;28;20080;-64
2022/04/11 12:24:41;;;;;;;12.48;8.00;;;15.10;92.30;;;;;;5033959;28;20087;-64
2022/04/11 12:27:13;;;;;;;11.70;8.45;;;15.10;91.10;;;;;;5016287;28;20136;-64
2022/04/11 12:29:42;;;;;;;12.63;9.57;;;15.10;91.60;;;;;;5029296;28;20077;-64
2022/04/11 12:32:15;;;;;;;11.68;8.80;;;15.10;91.50;;;;;;5014473;28;20149;-64
2022/04/11 12:34:43;;;;;;;10.65;8.50;;;15.20;91.50;;;;;;5014296;28;20037;-64
2022/04/11 12:37:13;;;;;;;11.38;8.38;;;15.30;91.50;;;;;;5013985;28;20096;-64
2022/04/11 12:39:51;;;;;;;11.85;8.60;;;15.40;90.60;;;;;;5014915;28;20077;-64
2022/04/11 12:42:18;;;;;;;12.88;8.93;;;15.40;88.80;;;;;;5014252;28;20045;-64
2022/04/11 12:44:44;;;;;;;13.00;9.15;;;15.30;87.40;;;;;;5012212;28;20088;-64
2022/04/11 12:47:10;;;;;;;12.23;9.10;;;15.30;87.50;;;;;;5005479;28;20525;-64
2022/04/11 12:49:48;;;;;;;13.55;9.10;;;15.30;88.50;;;;;;5032769;28;20564;-64
2022/04/11 12:52:19;;;;;;;13.40;8.88;;;15.40;90.20;;;;;;5033967;28;20045;-64
2022/04/11 12:54:50;;;;;;;14.73;9.40;;;15.30;90.00;;;;;;5016401;28;20041;-64